Time;durP1;ratioP1;P1;durP2;ratioP2;P2;SDS_P1;SDS_P2;PMS_P1;PMS_P2;Temp;Humidity;BMP_temperature;BMP_pressure;BME280_temperature;BME280_humidity;BME280_pressure;Samples;Min_cycle;Max_cycle;Signal;HPM_P1;HPM_P2
2022/02/22 00:00:22;;;;;;;;;;;;;;;;;;7397687;19;2194;-51
2022/02/22 00:02:50;;;;;;;;;;;;;;;;;;7397590;19;2080;-52
2022/02/22 00:05:17;;;;;;;;;;;;;;;;;;7395904;19;1985;-54
2022/02/22 00:07:44;;;;;;;;;;;;;;;;;;7397356;19;2267;-59
2022/02/22 00:10:14;;;;;;;;;;;;;;;;;;7397421;19;2067;-57
2022/02/22 00:12:42;;;;;;;;;;;;;;;;;;7397220;19;2325;-51
2022/02/22 00:15:10;;;;;;;;;;;;;;;;;;7396118;19;2159;-47
2022/02/22 00:17:39;;;;;;;;;;;;;;;;;;7397056;19;2323;-53
2022/02/22 00:20:10;;;;;;;;;;;;;;;;;;7396618;19;2208;-53
2022/02/22 00:22:38;;;;;;;;;;;;;;;;;;7396898;19;2257;-50
2022/02/22 00:25:05;;;;;;;;;;;;;;;;;;7396719;19;2320;-51
2022/02/22 00:27:32;;;;;;;;;;;;;;;;;;7397843;19;2386;-54
2022/02/22 00:30:00;;;;;;;;;;;;;;;;;;7394849;19;2156;-58
2022/02/22 00:32:27;;;;;;;;;;;;;;;;;;7396655;19;2197;-50
2022/02/22 00:34:54;;;;;;;;;;;;;;;;;;7396455;19;1910;-52
2022/02/22 00:37:21;;;;;;;;;;;;;;;;;;7393727;19;2136;-52
2022/02/22 00:39:48;;;;;;;;;;;;;;;;;;7396370;19;2155;-55
2022/02/22 00:42:16;;;;;;;;;;;;;;;;;;7396036;19;2006;-51
2022/02/22 00:44:44;;;;;;;;;;;;;;;;;;7394797;19;1905;-50
2022/02/22 00:47:11;;;;;;;;;;;;;;;;;;7396164;19;2290;-50
2022/02/22 00:49:38;;;;;;;;;;;;;;;;;;7393736;19;2291;-57
2022/02/22 00:52:05;;;;;;;;;;;;;;;;;;7396330;19;1534;-50
2022/02/22 00:54:32;;;;;;;;;;;;;;;;;;7395893;19;2220;-50
2022/02/22 00:57:00;;;;;;;;;;;;;;;;;;7393821;19;2261;-51
2022/02/22 00:59:27;;;;;;;;;;;;;;;;;;7395578;19;2071;-53
2022/02/22 01:01:54;;;;;;;;;;;;;;;;;;7395935;19;2039;-57
2022/02/22 01:04:21;;;;;;;;;;;;;;;;;;7394101;19;2412;-52
2022/02/22 01:06:48;;;;;;;;;;;;;;;;;;7393105;19;2224;-51
2022/02/22 01:09:16;;;;;;;;;;;;;;;;;;7395164;19;2217;-50
2022/02/22 01:11:43;;;;;;;;;;;;;;;;;;7394634;19;2176;-52
2022/02/22 01:14:10;;;;;;;;;;;;;;;;;;7394935;19;2107;-51
2022/02/22 01:16:37;;;;;;;;;;;;;;;;;;7393583;19;1852;-51
2022/02/22 01:19:05;;;;;;;;;;;;;;;;;;7395495;19;2187;-51
2022/02/22 01:21:32;;;;;;;;;;;;;;;;;;7395182;19;2019;-51
2022/02/22 01:24:00;;;;;;;;;;;;;;;;;;7395236;19;2279;-57
2022/02/22 01:26:28;;;;;;;;;;;;;;;;;;7394647;19;2259;-51
2022/02/22 01:28:55;;;;;;;;;;;;;;;;;;7398349;19;2318;-53
2022/02/22 01:31:22;;;;;;;;;;;;;;;;;;7394456;19;1481;-52
2022/02/22 01:33:54;;;;;;;;;;;;;;;;;;7394148;19;2299;-59
2022/02/22 01:36:22;;;;;;;;;;;;;;;;;;7393370;19;2118;-55
2022/02/22 01:38:51;;;;;;;;;;;;;;;;;;7393844;19;2004;-54
2022/02/22 01:41:19;;;;;;;;;;;;;;;;;;7394339;19;2359;-49
2022/02/22 01:43:46;;;;;;;;;;;;;;;;;;7393916;19;2334;-52
2022/02/22 01:46:14;;;;;;;;;;;;;;;;;;7393631;19;2404;-52
2022/02/22 01:48:41;;;;;;;;;;;;;;;;;;7393397;19;1954;-49
2022/02/22 01:51:09;;;;;;;;;;;;;;;;;;7393120;19;1937;-54
2022/02/22 01:53:36;;;;;;;;;;;;;;;;;;7393400;19;2302;-54
2022/02/22 01:56:03;;;;;;;;;;;;;;;;;;7390907;19;1848;-49
2022/02/22 01:58:30;;;;;;;;;;;;;;;;;;7392514;19;2276;-49
2022/02/22 02:01:08;;;;;;;;;;;;;;;;;;7393248;19;2331;-51
2022/02/22 02:03:35;;;;;;;;;;;;;;;;;;7393216;19;2286;-49
2022/02/22 02:06:02;;;;;;;;;;;;;;;;;;7392186;19;2414;-50
2022/02/22 02:08:30;;;;;;;;;;;;;;;;;;7392516;19;1975;-54
2022/02/22 02:10:57;;;;;;;;;;;;;;;;;;7393817;19;2301;-59
2022/02/22 02:13:25;;;;;;;;;;;;;;;;;;7392679;19;2086;-51
2022/02/22 02:15:52;;;;;;;;;;;;;;;;;;7394446;19;1842;-52
2022/02/22 02:18:20;;;;;;;;;;;;;;;;;;7392365;19;2537;-60
2022/02/22 02:20:47;;;;;;;;;;;;;;;;;;7392573;19;2231;-51
2022/02/22 02:23:16;;;;;;;;;;;;;;;;;;7392402;19;2160;-52
2022/02/22 02:25:45;;;;;;;;;;;;;;;;;;7392363;19;2360;-54
2022/02/22 02:28:12;;;;;;;;;;;;;;;;;;7394748;19;2132;-52
2022/02/22 02:30:39;;;;;;;;;;;;;;;;;;7391799;19;2228;-51
2022/02/22 02:33:06;;;;;;;;;;;;;;;;;;7392196;19;2595;-50
2022/02/22 02:35:34;;;;;;;;;;;;;;;;;;7392261;19;2257;-51
2022/02/22 02:38:01;;;;;;;;;;;;;;;;;;7390973;19;2145;-58
2022/02/22 02:40:37;;;;;;;;;;;;;;;;;;7392425;19;2287;-49
2022/02/22 02:43:04;;;;;;;;;;;;;;;;;;7392450;19;2309;-54
2022/02/22 02:45:31;;;;;;;;;;;;;;;;;;7391638;19;2007;-60
2022/02/22 02:47:58;;;;;;;;;;;;;;;;;;7392522;19;1575;-58
2022/02/22 02:50:25;;;;;;;;;;;;;;;;;;7391803;19;2238;-48
2022/02/22 02:52:53;;;;;;;;;;;;;;;;;;7391674;19;2381;-55
2022/02/22 02:55:20;;;;;;;;;;;;;;;;;;7390393;19;2280;-62
2022/02/22 02:57:47;;;;;;;;;;;;;;;;;;7390251;19;2236;-61
2022/02/22 03:00:14;;;;;;;;;;;;;;;;;;7391855;19;2381;-51
2022/02/22 03:02:41;;;;;;;;;;;;;;;;;;7391545;19;2217;-53
2022/02/22 03:05:09;;;;;;;;;;;;;;;;;;7390979;19;2627;-56
2022/02/22 03:07:36;;;;;;;;;;;;;;;;;;7390992;19;1649;-54
2022/02/22 03:10:04;;;;;;;;;;;;;;;;;;7391241;19;2202;-55
2022/02/22 03:12:31;;;;;;;;;;;;;;;;;;7390686;19;1900;-50
2022/02/22 03:14:58;;;;;;;;;;;;;;;;;;7391068;19;2276;-52
2022/02/22 03:17:26;;;;;;;;;;;;;;;;;;7389646;19;2293;-59
2022/02/22 03:19:53;;;;;;;;;;;;;;;;;;7390670;19;2018;-50
2022/02/22 03:22:20;;;;;;;;;;;;;;;;;;7391318;19;2473;-52
2022/02/22 03:24:48;;;;;;;;;;;;;;;;;;7388531;19;2025;-51
2022/02/22 03:27:15;;;;;;;;;;;;;;;;;;7391057;19;2212;-50
2022/02/22 03:29:43;;;;;;;;;;;;;;;;;;7390901;19;2369;-50
2022/02/22 03:32:10;;;;;;;;;;;;;;;;;;7390882;19;2208;-53
2022/02/22 03:34:37;;;;;;;;;;;;;;;;;;7391644;19;2399;-54
2022/02/22 03:37:05;;;;;;;;;;;;;;;;;;7389746;19;2429;-53
2022/02/22 03:39:32;;;;;;;;;;;;;;;;;;7390965;19;1642;-50
2022/02/22 03:41:59;;;;;;;;;;;;;;;;;;7389892;19;1679;-57
2022/02/22 03:44:26;;;;;;;;;;;;;;;;;;7390698;19;2059;-51
2022/02/22 03:46:53;;;;;;;;;;;;;;;;;;7390156;19;2341;-54
2022/02/22 03:49:21;;;;;;;;;;;;;;;;;;7390321;19;2123;-51
2022/02/22 03:51:48;;;;;;;;;;;;;;;;;;7390469;19;2268;-52
2022/02/22 03:54:15;;;;;;;;;;;;;;;;;;7389689;19;2208;-52
2022/02/22 03:56:42;;;;;;;;;;;;;;;;;;7389440;19;2178;-55
2022/02/22 03:59:09;;;;;;;;;;;;;;;;;;7390027;19;2151;-59
2022/02/22 04:01:37;;;;;;;;;;;;;;;;;;7390212;19;2336;-56
2022/02/22 04:04:04;;;;;;;;;;;;;;;;;;7390041;19;2198;-56
2022/02/22 04:06:31;;;;;;;;;;;;;;;;;;7387817;19;2241;-51
2022/02/22 04:08:58;;;;;;;;;;;;;;;;;;7389725;19;2023;-59
2022/02/22 04:11:25;;;;;;;;;;;;;;;;;;7389756;19;2338;-54
2022/02/22 04:13:53;;;;;;;;;;;;;;;;;;7389943;19;2135;-52
2022/02/22 04:16:20;;;;;;;;;;;;;;;;;;7389220;19;2316;-53
2022/02/22 04:18:47;;;;;;;;;;;;;;;;;;7389508;19;2304;-52
2022/02/22 04:21:14;;;;;;;;;;;;;;;;;;7396585;19;2702;-53
2022/02/22 04:23:41;;;;;;;;;;;;;;;;;;7396826;19;2427;-50
2022/02/22 04:26:08;;;;;;;;;;;;;;;;;;7396963;19;2277;-50
2022/02/22 04:28:36;;;;;;;;;;;;;;;;;;7400204;19;2363;-55
2022/02/22 04:31:03;;;;;;;;;;;;;;;;;;7396986;19;2373;-54
2022/02/22 04:33:30;;;;;;;;;;;;;;;;;;7396427;19;2202;-55
2022/02/22 04:35:57;;;;;;;;;;;;;;;;;;7394118;19;2305;-54
2022/02/22 04:38:24;;;;;;;;;;;;;;;;;;7393555;19;2248;-56
2022/02/22 04:40:52;;;;;;;;;;;;;;;;;;7395822;19;1963;-58
2022/02/22 04:43:19;;;;;;;;;;;;;;;;;;7394457;19;2371;-54
2022/02/22 04:45:46;;;;;;;;;;;;;;;;;;7396004;19;2158;-51
2022/02/22 04:48:14;;;;;;;;;;;;;;;;;;7395840;19;1690;-61
2022/02/22 04:50:41;;;;;;;;;;;;;;;;;;7395795;19;2467;-56
2022/02/22 04:53:09;;;;;;;;;;;;;;;;;;7395812;19;2205;-55
2022/02/22 04:55:37;;;;;;;;;;;;;;;;;;7396097;19;2345;-56
2022/02/22 04:58:04;;;;;;;;;;;;;;;;;;7394039;19;2013;-61
2022/02/22 05:00:31;;;;;;;;;;;;;;;;;;7395473;19;2024;-57
2022/02/22 05:02:59;;;;;;;;;;;;;;;;;;7395419;19;2437;-52
2022/02/22 05:05:26;;;;;;;;;;;;;;;;;;7394096;19;2183;-56
2022/02/22 05:07:56;;;;;;;;;;;;;;;;;;7393669;19;2050;-61
2022/02/22 05:10:24;;;;;;;;;;;;;;;;;;7394694;19;1519;-58
2022/02/22 05:12:51;;;;;;;;;;;;;;;;;;7395146;19;2332;-50
2022/02/22 05:15:18;;;;;;;;;;;;;;;;;;7392993;19;2303;-56
2022/02/22 05:17:45;;;;;;;;;;;;;;;;;;7393513;19;2360;-57
2022/02/22 05:20:12;;;;;;;;;;;;;;;;;;7394840;19;2489;-58
2022/02/22 05:22:44;;;;;;;;;;;;;;;;;;7393968;19;2398;-58
2022/02/22 05:25:12;;;;;;;;;;;;;;;;;;7393959;19;2160;-56
2022/02/22 05:27:39;;;;;;;;;;;;;;;;;;7395527;19;2217;-55
2022/02/22 05:30:07;;;;;;;;;;;;;;;;;;7392960;19;1769;-60
2022/02/22 05:32:35;;;;;;;;;;;;;;;;;;7394015;19;2293;-58
2022/02/22 05:35:03;;;;;;;;;;;;;;;;;;7393981;19;2301;-54
2022/02/22 05:37:30;;;;;;;;;;;;;;;;;;7392939;19;2568;-59
2022/02/22 05:39:58;;;;;;;;;;;;;;;;;;7393660;19;2570;-54
2022/02/22 05:42:25;;;;;;;;;;;;;;;;;;7393371;19;2298;-55
2022/02/22 05:44:53;;;;;;;;;;;;;;;;;;7393810;19;2184;-55
2022/02/22 05:47:20;;;;;;;;;;;;;;;;;;7393649;19;2213;-55
2022/02/22 05:49:47;;;;;;;;;;;;;;;;;;7393718;19;1894;-57
2022/02/22 05:52:15;;;;;;;;;;;;;;;;;;7393994;19;2392;-51
2022/02/22 05:54:43;;;;;;;;;;;;;;;;;;7393596;19;2016;-56
2022/02/22 05:57:10;;;;;;;;;;;;;;;;;;7392180;19;2222;-60
2022/02/22 05:59:37;;;;;;;;;;;;;;;;;;7394247;19;2302;-54
2022/02/22 06:02:05;;;;;;;;;;;;;;;;;;7393562;19;2347;-55
2022/02/22 06:04:33;;;;;;;;;;;;;;;;;;7393580;19;2300;-51
2022/02/22 06:07:00;;;;;;;;;;;;;;;;;;7393266;19;1878;-55
2022/02/22 06:09:27;;;;;;;;;;;;;;;;;;7392841;19;1952;-55
2022/02/22 06:11:54;;;;;;;;;;;;;;;;;;7393074;19;2482;-52
2022/02/22 06:14:21;;;;;;;;;;;;;;;;;;7393130;19;2176;-52
2022/02/22 06:16:53;;;;;;;;;;;;;;;;;;7392737;19;2162;-52
2022/02/22 06:19:24;;;;;;;;;;;;;;;;;;7393152;19;2247;-59
2022/02/22 06:21:51;;;;;;;;;;;;;;;;;;7392936;19;2274;-51
2022/02/22 06:24:20;;;;;;;;;;;;;;;;;;7392210;19;2154;-59
2022/02/22 06:26:48;;;;;;;;;;;;;;;;;;7392744;19;2478;-60
2022/02/22 06:29:15;;;;;;;;;;;;;;;;;;7397078;19;2207;-57
2022/02/22 06:31:42;;;;;;;;;;;;;;;;;;7392588;19;2292;-52
2022/02/22 06:34:10;;;;;;;;;;;;;;;;;;7392291;19;2381;-51
2022/02/22 06:36:37;;;;;;;;;;;;;;;;;;7392399;19;2330;-51
2022/02/22 06:39:04;;;;;;;;;;;;;;;;;;7391437;19;1990;-62
2022/02/22 06:41:31;;;;;;;;;;;;;;;;;;7389946;19;2285;-59
2022/02/22 06:43:58;;;;;;;;;;;;;;;;;;7392077;19;2096;-53
2022/02/22 06:46:27;;;;;;;;;;;;;;;;;;7392166;19;2241;-60
2022/02/22 06:48:54;;;;;;;;;;;;;;;;;;7390245;19;2372;-62
2022/02/22 06:51:21;;;;;;;;;;;;;;;;;;7391056;19;1753;-51
2022/02/22 06:53:48;;;;;;;;;;;;;;;;;;7391393;19;2081;-50
2022/02/22 06:56:16;;;;;;;;;;;;;;;;;;7391568;19;2209;-55
2022/02/22 06:58:44;;;;;;;;;;;;;;;;;;7388716;19;1850;-51
2022/02/22 07:01:11;;;;;;;;;;;;;;;;;;7390137;19;2137;-53
2022/02/22 07:03:39;;;;;;;;;;;;;;;;;;7391560;19;2438;-48
2022/02/22 07:06:06;;;;;;;;;;;;;;;;;;7388717;19;2174;-61
2022/02/22 07:08:34;;;;;;;;;;;;;;;;;;7389520;19;1903;-52
2022/02/22 07:11:01;;;;;;;;;;;;;;;;;;7390999;19;2294;-58
2022/02/22 07:13:29;;;;;;;;;;;;;;;;;;7390461;19;2273;-68
2022/02/22 07:15:56;;;;;;;;;;;;;;;;;;7390895;19;2218;-57
2022/02/22 07:18:23;;;;;;;;;;;;;;;;;;7389311;19;2377;-58
2022/02/22 07:20:51;;;;;;;;;;;;;;;;;;7390198;19;2320;-61
2022/02/22 07:23:18;;;;;;;;;;;;;;;;;;7390582;19;2271;-57
2022/02/22 07:25:45;;;;;;;;;;;;;;;;;;7390551;19;2295;-49
2022/02/22 07:28:12;;;;;;;;;;;;;;;;;;7392454;19;1966;-53
2022/02/22 07:30:41;;;;;;;;;;;;;;;;;;7390070;19;2301;-50
2022/02/22 07:33:09;;;;;;;;;;;;;;;;;;7390699;19;2264;-49
2022/02/22 07:35:36;;;;;;;;;;;;;;;;;;7390368;19;2489;-52
2022/02/22 07:38:03;;;;;;;;;;;;;;;;;;7389812;19;2306;-50
2022/02/22 07:40:30;;;;;;;;;;;;;;;;;;7390870;19;2301;-61
2022/02/22 07:42:59;;;;;;;;;;;;;;;;;;7390236;19;1641;-49
2022/02/22 07:45:27;;;;;;;;;;;;;;;;;;7389985;19;1943;-58
2022/02/22 07:47:54;;;;;;;;;;;;;;;;;;7390118;19;2101;-52
2022/02/22 07:50:21;;;;;;;;;;;;;;;;;;7390110;19;2120;-61
2022/02/22 07:52:48;;;;;;;;;;;;;;;;;;7389958;19;2154;-49
2022/02/22 07:55:16;;;;;;;;;;;;;;;;;;7394779;19;2495;-53
2022/02/22 07:57:46;;;;;;;;;;;;;;;;;;7397299;19;2407;-56
2022/02/22 08:00:13;;;;;;;;;;;;;;;;;;7397303;19;1724;-49
2022/02/22 08:02:45;;;;;;;;;;;;;;;;;;7397510;19;2445;-54
2022/02/22 08:05:13;;;;;;;;;;;;;;;;;;7396089;19;2535;-60
2022/02/22 08:07:40;;;;;;;;;;;;;;;;;;7397226;19;2091;-53
2022/02/22 08:10:07;;;;;;;;;;;;;;;;;;7397410;19;2268;-54
2022/02/22 08:12:35;;;;;;;;;;;;;;;;;;7396747;19;1955;-55
2022/02/22 08:15:02;;;;;;;;;;;;;;;;;;7395948;19;2316;-55
2022/02/22 08:17:29;;;;;;;;;;;;;;;;;;7396904;19;2214;-49
2022/02/22 08:19:57;;;;;;;;;;;;;;;;;;7396026;19;1611;-53
2022/02/22 08:22:24;;;;;;;;;;;;;;;;;;7396181;19;2202;-62
2022/02/22 08:24:52;;;;;;;;;;;;;;;;;;7397152;19;2270;-53
2022/02/22 08:27:20;;;;;;;;;;;;;;;;;;7396432;19;2246;-52
2022/02/22 08:29:48;;;;;;;;;;;;;;;;;;7396526;19;2153;-49
2022/02/22 08:32:15;;;;;;;;;;;;;;;;;;7396018;19;2333;-49
2022/02/22 08:34:42;;;;;;;;;;;;;;;;;;7396637;19;2129;-54
2022/02/22 08:37:15;;;;;;;;;;;;;;;;;;7395858;19;1754;-66
2022/02/22 08:39:44;;;;;;;;;;;;;;;;;;7395433;19;1990;-51
2022/02/22 08:42:11;;;;;;;;;;;;;;;;;;7396592;19;2235;-51
2022/02/22 08:44:39;;;;;;;;;;;;;;;;;;7396290;19;2089;-47
2022/02/22 08:47:06;;;;;;;;;;;;;;;;;;7395809;19;2516;-50
2022/02/22 08:49:33;;;;;;;;;;;;;;;;;;7395791;19;2288;-47
2022/02/22 08:52:01;;;;;;;;;;;;;;;;;;7395418;19;2254;-61
2022/02/22 08:54:46;;;;;;;;;;;;;;;;;;7395837;19;2219;-50
2022/02/22 08:57:13;;;;;;;;;;;;;;;;;;7395324;19;2236;-49
2022/02/22 08:59:41;;;;;;;;;;;;;;;;;;7393543;19;2344;-48
2022/02/22 09:02:08;;;;;;;;;;;;;;;;;;7395383;19;2330;-52
2022/02/22 09:04:35;;;;;;;;;;;;;;;;;;7393888;19;2260;-62
2022/02/22 09:07:03;;;;;;;;;;;;;;;;;;7395489;19;2289;-52
2022/02/22 09:09:30;;;;;;;;;;;;;;;;;;7395037;19;2264;-55
2022/02/22 09:11:57;;;;;;;;;;;;;;;;;;7395256;19;1683;-53
2022/02/22 09:14:25;;;;;;;;;;;;;;;;;;7395208;19;2061;-60
2022/02/22 09:16:52;;;;;;;;;;;;;;;;;;7394896;19;2285;-63
2022/02/22 09:19:19;;;;;;;;;;;;;;;;;;7392777;19;1880;-59
2022/02/22 09:21:47;;;;;;;;;;;;;;;;;;7392923;19;2344;-51
2022/02/22 09:24:14;;;;;;;;;;;;;;;;;;7395127;19;2402;-49
2022/02/22 09:26:41;;;;;;;;;;;;;;;;;;7394423;19;2321;-60
2022/02/22 09:29:09;;;;;;;;;;;;;;;;;;7398551;19;2111;-51
2022/02/22 09:31:36;;;;;;;;;;;;;;;;;;7393733;19;2266;-56
2022/02/22 09:34:03;;;;;;;;;;;;;;;;;;7394478;19;1959;-50
2022/02/22 09:36:31;;;;;;;;;;;;;;;;;;7393992;19;2612;-55
2022/02/22 09:38:58;;;;;;;;;;;;;;;;;;7392657;19;2324;-53
2022/02/22 09:41:25;;;;;;;;;;;;;;;;;;7393182;19;2198;-56
2022/02/22 09:43:52;;;;;;;;;;;;;;;;;;7393440;19;2190;-50
2022/02/22 09:46:20;;;;;;;;;;;;;;;;;;7393786;19;2175;-53
2022/02/22 09:48:47;;;;;;;;;;;;;;;;;;7393511;19;2209;-59
2022/02/22 09:51:15;;;;;;;;;;;;;;;;;;7393293;19;2188;-53
2022/02/22 09:53:43;;;;;;;;;;;;;;;;;;7394875;19;2423;-59
2022/02/22 09:56:10;;;;;;;;;;;;;;;;;;7393145;19;2207;-56
2022/02/22 09:58:38;;;;;;;;;;;;;;;;;;7392375;19;2334;-49
2022/02/22 10:01:05;;;;;;;;;;;;;;;;;;7391646;19;2283;-53
2022/02/22 10:03:33;;;;;;;;;;;;;;;;;;7392830;19;1924;-51
2022/02/22 10:06:01;;;;;;;;;;;;;;;;;;7392054;19;2123;-54
2022/02/22 10:08:32;;;;;;;;;;;;;;;;;;7392973;19;1661;-62
2022/02/22 10:11:07;;;;;;;;;;;;;;;;;;7392305;19;2299;-60
2022/02/22 10:13:35;;;;;;;;;;;;;;;;;;7392312;19;2317;-54
2022/02/22 10:16:10;;;;;;;;;;;;;;;;;;7392466;19;1912;-52
2022/02/22 10:18:44;;;;;;;;;;;;;;;;;;7390527;19;2364;-60
2022/02/22 10:21:12;;;;;;;;;;;;;;;;;;7392232;19;2442;-52
2022/02/22 10:23:39;;;;;;;;;;;;;;;;;;7392705;19;1481;-56
2022/02/22 10:26:07;;;;;;;;;;;;;;;;;;7391890;19;1902;-51
2022/02/22 10:28:36;;;;;;;;;;;;;;;;;;7395510;19;2078;-54
2022/02/22 10:31:10;;;;;;;;;;;;;;;;;;7392399;19;2487;-52
2022/02/22 10:33:41;;;;;;;;;;;;;;;;;;7392696;19;2264;-53
2022/02/22 10:36:32;;;;;;;;;;;;;;;;;;7391900;19;2330;-54
2022/02/22 10:39:09;;;;;;;;;;;;;;;;;;7391328;19;2282;-56
2022/02/22 10:41:44;;;;;;;;;;;;;;;;;;7392063;19;2357;-53
2022/02/22 10:44:22;;;;;;;;;;;;;;;;;;7392174;19;2035;-52
2022/02/22 10:46:49;;;;;;;;;;;;;;;;;;7392431;19;2231;-56
2022/02/22 10:49:18;;;;;;;;;;;;;;;;;;7392170;19;2343;-56
2022/02/22 10:51:48;;;;;;;;;;;;;;;;;;7391945;19;2436;-60
2022/02/22 10:54:17;;;;;;;;;;;;;;;;;;7391706;19;2063;-64
2022/02/22 10:56:45;;;;;;;;;;;;;;;;;;7394652;19;2457;-54
2022/02/22 10:59:17;;;;;;;;;;;;;;;;;;7390662;19;2359;-56
2022/02/22 11:01:45;;;;;;;;;;;;;;;;;;7391642;19;1504;-58
2022/02/22 11:04:13;;;;;;;;;;;;;;;;;;7391522;19;2065;-58
2022/02/22 11:06:40;;;;;;;;;;;;;;;;;;7389809;19;2171;-60
2022/02/22 11:09:08;;;;;;;;;;;;;;;;;;7391281;19;1423;-58
2022/02/22 11:11:50;;;;;;;;;;;;;;;;;;7388843;19;2176;-59
2022/02/22 11:14:23;;;;;;;;;;;;;;;;;;7391904;19;2224;-63
2022/02/22 11:16:52;;;;;;;;;;;;;;;;;;7391219;19;2246;-60
2022/02/22 11:19:20;;;;;;;;;;;;;;;;;;7390582;19;2175;-59
2022/02/22 11:21:50;;;;;;;;;;;;;;;;;;7391610;19;2270;-60
2022/02/22 11:24:21;;;;;;;;;;;;;;;;;;7390725;19;2249;-60
2022/02/22 11:26:52;;;;;;;;;;;;;;;;;;7390545;19;2004;-60
2022/02/22 11:29:21;;;;;;;;;;;;;;;;;;7405922;19;2123;-58
2022/02/22 11:31:57;;;;;;;;;;;;;;;;;;7404953;19;2411;-60
2022/02/22 11:34:31;;;;;;;;;;;;;;;;;;7405113;19;2351;-60
2022/02/22 11:37:02;;;;;;;;;;;;;;;;;;7404510;19;1968;-61
2022/02/22 11:39:30;;;;;;;;;;;;;;;;;;7403383;19;1986;-60
2022/02/22 11:41:59;;;;;;;;;;;;;;;;;;7404560;19;2326;-60
2022/02/22 11:44:26;;;;;;;;;;;;;;;;;;7404473;19;2319;-58
2022/02/22 11:46:55;;;;;;;;;;;;;;;;;;7404000;19;2030;-60
2022/02/22 11:49:23;;;;;;;;;;;;;;;;;;7403964;19;2150;-60
2022/02/22 11:52:11;;;;;;;;;;;;;;;;;;7404119;19;2320;-60
2022/02/22 11:54:41;;;;;;;;;;;;;;;;;;7403116;19;1969;-60
2022/02/22 11:57:15;;;;;;;;;;;;;;;;;;7403312;19;2295;-59
2022/02/22 11:59:47;;;;;;;;;;;;;;;;;;7401962;19;2124;-60
2022/02/22 12:02:29;;;;;;;;;;;;;;;;;;7404320;19;2240;-57
2022/02/22 12:05:01;;;;;;;;;;;;;;;;;;7403080;19;2379;-59
2022/02/22 12:07:30;;;;;;;;;;;;;;;;;;7403837;19;2269;-59
2022/02/22 12:09:58;;;;;;;;;;;;;;;;;;7403643;19;2050;-59
2022/02/22 12:12:26;;;;;;;;;;;;;;;;;;7401809;19;1336;-61
2022/02/22 12:14:55;;;;;;;;;;;;;;;;;;7404254;19;2200;-57
2022/02/22 12:17:23;;;;;;;;;;;;;;;;;;7404095;19;1973;-56
2022/02/22 12:19:51;;;;;;;;;;;;;;;;;;7404665;19;2242;-54
2022/02/22 12:22:20;;;;;;;;;;;;;;;;;;7403705;19;2254;-55
2022/02/22 12:25:00;;;;;;;;;;;;;;;;;;7407261;19;2448;-50
2022/02/22 12:27:30;;;;;;;;;;;;;;;;;;7403885;19;2362;-59
2022/02/22 12:29:59;;;;;;;;;;;;;;;;;;7406211;19;2428;-54
2022/02/22 12:32:35;;;;;;;;;;;;;;;;;;7403920;19;2197;-57
2022/02/22 12:35:06;;;;;;;;;;;;;;;;;;7402994;19;2024;-54
2022/02/22 12:37:54;;;;;;;;;;;;;;;;;;7403779;19;2290;-57
2022/02/22 12:40:21;;;;;;;;;;;;;;;;;;7396330;19;2100;-56
2022/02/22 12:42:50;;;;;;;;;;;;;;;;;;7397005;19;1653;-57
2022/02/22 12:45:17;;;;;;;;;;;;;;;;;;7395867;19;1914;-52
2022/02/22 12:47:45;;;;;;;;;;;;;;;;;;7395955;19;2005;-53
2022/02/22 12:50:14;;;;;;;;;;;;;;;;;;7396045;19;1835;-68
2022/02/22 12:52:41;;;;;;;;;;;;;;;;;;7394275;19;2496;-63
2022/02/22 12:55:18;;;;;;;;;;;;;;;;;;7395010;19;2230;-56
2022/02/22 12:57:48;;;;;;;;;;;;;;;;;;7393954;19;1626;-55
2022/02/22 13:00:31;;;;;;;;;;;;;;;;;;7392491;19;2206;-54
2022/02/22 13:03:09;;;;;;;;;;;;;;;;;;7395106;19;2321;-53
2022/02/22 13:05:41;;;;;;;;;;;;;;;;;;7392516;19;2321;-49
2022/02/22 13:08:09;;;;;;;;;;;;;;;;;;7394759;19;2188;-54
2022/02/22 13:10:45;;;;;;;;;;;;;;;;;;7394848;19;2426;-52
2022/02/22 13:13:12;;;;;;;;;;;;;;;;;;7394941;19;1892;-51
2022/02/22 13:15:42;;;;;;;;;;;;;;;;;;7394320;19;2255;-51
2022/02/22 13:18:10;;;;;;;;;;;;;;;;;;7395059;19;2340;-51
2022/02/22 13:20:41;;;;;;;;;;;;;;;;;;7392233;19;1849;-46
2022/02/22 13:23:12;;;;;;;;;;;;;;;;;;7394141;19;2290;-47
2022/02/22 13:25:43;;;;;;;;;;;;;;;;;;7393825;19;2558;-48
2022/02/22 13:28:34;;;;;;;;;;;;;;;;;;7397111;19;1613;-51
2022/02/22 13:31:23;;;;;;;;;;;;;;;;;;7394207;19;2362;-58
2022/02/22 13:33:58;;;;;;;;;;;;;;;;;;7394373;19;2188;-50
2022/02/22 13:36:26;;;;;;;;;;;;;;;;;;7394322;19;2639;-52
2022/02/22 13:39:00;;;;;;;;;;;;;;;;;;7394521;19;2428;-55
2022/02/22 13:41:35;;;;;;;;;;;;;;;;;;7394665;19;2270;-55
2022/02/22 13:44:04;;;;;;;;;;;;;;;;;;7393464;19;2322;-49
2022/02/22 13:46:50;;;;;;;;;;;;;;;;;;7392664;19;2192;-48
2022/02/22 13:49:19;;;;;;;;;;;;;;;;;;7391462;19;2002;-54
2022/02/22 13:51:47;;;;;;;;;;;;;;;;;;7390711;19;2073;-52
2022/02/22 13:54:16;;;;;;;;;;;;;;;;;;7393454;19;2243;-59
2022/02/22 13:56:50;;;;;;;;;;;;;;;;;;7393484;19;1710;-49
2022/02/22 13:59:18;;;;;;;;;;;;;;;;;;7393069;19;2557;-54
2022/02/22 14:01:50;;;;;;;;;;;;;;;;;;7393732;19;2415;-50
2022/02/22 14:04:17;;;;;;;;;;;;;;;;;;7393335;19;1375;-51
2022/02/22 14:06:45;;;;;;;;;;;;;;;;;;7391112;19;2133;-58
2022/02/22 14:09:12;;;;;;;;;;;;;;;;;;7393352;19;2294;-55
2022/02/22 14:11:40;;;;;;;;;;;;;;;;;;7393232;19;2200;-58
2022/02/22 14:14:08;;;;;;;;;;;;;;;;;;7393053;19;2121;-48
2022/02/22 14:16:37;;;;;;;;;;;;;;;;;;7392192;19;2240;-57
2022/02/22 14:19:05;;;;;;;;;;;;;;;;;;7392183;19;2509;-60
2022/02/22 14:21:33;;;;;;;;;;;;;;;;;;7392908;19;2338;-55
2022/02/22 14:24:00;;;;;;;;;;;;;;;;;;7392925;19;2393;-60
2022/02/22 14:26:27;;;;;;;;;;;;;;;;;;7392116;19;1956;-60
2022/02/22 14:28:54;;;;;;;;;;;;;;;;;;7396522;19;2356;-57
2022/02/22 14:31:22;;;;;;;;;;;;;;;;;;7392159;19;1993;-59
2022/02/22 14:33:49;;;;;;;;;;;;;;;;;;7392270;19;1630;-60
2022/02/22 14:36:17;;;;;;;;;;;;;;;;;;7391713;19;2270;-61
2022/02/22 14:38:44;;;;;;;;;;;;;;;;;;7392357;19;1949;-69
2022/02/22 14:41:11;;;;;;;;;;;;;;;;;;7390705;19;2004;-62
2022/02/22 14:43:38;;;;;;;;;;;;;;;;;;7392125;19;2267;-61
2022/02/22 14:46:06;;;;;;;;;;;;;;;;;;7392002;19;2306;-61
2022/02/22 14:48:34;;;;;;;;;;;;;;;;;;7392210;19;2007;-60
2022/02/22 14:51:01;;;;;;;;;;;;;;;;;;7392367;19;2199;-60
2022/02/22 14:53:28;;;;;;;;;;;;;;;;;;7391830;19;2167;-60
2022/02/22 14:55:55;;;;;;;;;;;;;;;;;;7391172;19;2233;-61
2022/02/22 14:58:23;;;;;;;;;;;;;;;;;;7391759;19;1989;-62
2022/02/22 15:00:51;;;;;;;;;;;;;;;;;;7388333;19;2013;-61
2022/02/22 15:03:20;;;;;;;;;;;;;;;;;;7389460;19;2021;-62
2022/02/22 15:05:48;;;;;;;;;;;;;;;;;;7390522;19;1366;-62
2022/02/22 15:08:15;;;;;;;;;;;;;;;;;;7391129;19;2108;-64
2022/02/22 15:10:43;;;;;;;;;;;;;;;;;;7391396;19;2016;-60
2022/02/22 15:13:11;;;;;;;;;;;;;;;;;;7391035;19;2072;-59
2022/02/22 15:15:39;;;;;;;;;;;;;;;;;;7390900;19;1931;-60
2022/02/22 15:18:07;;;;;;;;;;;;;;;;;;7388705;19;1914;-59
2022/02/22 15:20:38;;;;;;;;;;;;;;;;;;7389916;19;2249;-60
2022/02/22 15:23:05;;;;;;;;;;;;;;;;;;7390853;19;2296;-59
2022/02/22 15:25:32;;;;;;;;;;;;;;;;;;7390469;19;2195;-60
2022/02/22 15:28:22;;;;;;;;;;;;;;;;;;7393694;19;2312;-63
2022/02/22 15:30:51;;;;;;;;;;;;;;;;;;7390548;19;2341;-61
2022/02/22 15:33:18;;;;;;;;;;;;;;;;;;7390713;19;2047;-60
2022/02/22 15:35:50;;;;;;;;;;;;;;;;;;7390373;19;2030;-54
2022/02/22 15:38:17;;;;;;;;;;;;;;;;;;7390195;19;2468;-66
2022/02/22 15:40:46;;;;;;;;;;;;;;;;;;7388626;19;2021;-65
2022/02/22 15:43:14;;;;;;;;;;;;;;;;;;7390411;19;2284;-62
2022/02/22 15:45:44;;;;;;;;;;;;;;;;;;7389766;19;2066;-62
2022/02/22 15:48:12;;;;;;;;;;;;;;;;;;7386760;19;1568;-63
2022/02/22 15:50:40;;;;;;;;;;;;;;;;;;7386576;19;2057;-58
2022/02/22 15:53:07;;;;;;;;;;;;;;;;;;7385928;19;1377;-64
2022/02/22 15:55:34;;;;;;;;;;;;;;;;;;7386891;19;2029;-65
2022/02/22 15:58:02;;;;;;;;;;;;;;;;;;7386525;19;2027;-62
2022/02/22 16:00:30;;;;;;;;;;;;;;;;;;7384915;19;1905;-62
2022/02/22 16:02:57;;;;;;;;;;;;;;;;;;7386168;19;1028;-71
2022/02/22 16:05:25;;;;;;;;;;;;;;;;;;7384657;19;2210;-60
2022/02/22 16:07:55;;;;;;;;;;;;;;;;;;7385751;19;2287;-46
2022/02/22 16:10:23;;;;;;;;;;;;;;;;;;7385525;19;2060;-63
2022/02/22 16:12:50;;;;;;;;;;;;;;;;;;7386098;19;1380;-60
2022/02/22 16:15:17;;;;;;;;;;;;;;;;;;7387609;19;2356;-63
2022/02/22 16:17:44;;;;;;;;;;;;;;;;;;7391906;19;2284;-61
2022/02/22 16:20:12;;;;;;;;;;;;;;;;;;7393012;19;2193;-60
2022/02/22 16:22:42;;;;;;;;;;;;;;;;;;7396488;19;2174;-61
2022/02/22 16:25:10;;;;;;;;;;;;;;;;;;7397292;19;2348;-61
2022/02/22 16:27:39;;;;;;;;;;;;;;;;;;7397723;19;1996;-63
2022/02/22 16:30:08;;;;;;;;;;;;;;;;;;7396230;19;2504;-64
2022/02/22 16:32:37;;;;;;;;;;;;;;;;;;7396621;19;1555;-62
2022/02/22 16:35:09;;;;;;;;;;;;;;;;;;7395900;19;2206;-64
2022/02/22 16:37:39;;;;;;;;;;;;;;;;;;7396443;19;2253;-63
2022/02/22 16:40:06;;;;;;;;;;;;;;;;;;7395839;19;1851;-64
2022/02/22 16:42:33;;;;;;;;;;;;;;;;;;7396522;19;2504;-62
2022/02/22 16:45:01;;;;;;;;;;;;;;;;;;7394224;19;2632;-63
2022/02/22 16:47:28;;;;;;;;;;;;;;;;;;7395748;19;1781;-63
2022/02/22 16:49:55;;;;;;;;;;;;;;;;;;7395452;19;2278;-62
2022/02/22 16:52:22;;;;;;;;;;;;;;;;;;7395188;19;1418;-61
2022/02/22 16:54:49;;;;;;;;;;;;;;;;;;7395788;19;2286;-62
2022/02/22 16:57:17;;;;;;;;;;;;;;;;;;7395601;19;1769;-62
2022/02/22 16:59:44;;;;;;;;;;;;;;;;;;7394935;19;1842;-61
2022/02/22 17:02:11;;;;;;;;;;;;;;;;;;7393930;19;1640;-62
2022/02/22 17:04:39;;;;;;;;;;;;;;;;;;7395368;19;2488;-63
2022/02/22 17:07:09;;;;;;;;;;;;;;;;;;7395913;19;2429;-61
2022/02/22 17:09:37;;;;;;;;;;;;;;;;;;7396255;19;1681;-65
2022/02/22 17:12:05;;;;;;;;;;;;;;;;;;7395300;19;2026;-63